createdAt,value
2022-11-19T00:02:31.880Z,100.00
2022-11-19T00:36:46.147Z,100.00
2022-11-19T00:39:57.818Z,100.00
2022-11-19T00:43:23.904Z,100.00
2022-11-19T00:49:36.087Z,99.94
2022-11-19T00:52:47.895Z,100.00
2022-11-19T00:59:00.961Z,100.00
2022-11-19T01:02:12.760Z,100.00
2022-11-19T01:05:24.568Z,99.71
2022-11-19T01:08:36.814Z,100.00
2022-11-19T01:11:48.924Z,100.00
2022-11-19T01:15:02.248Z,100.00
2022-11-19T01:24:14.937Z,100.00
2022-11-19T01:27:28.048Z,99.56
2022-11-19T01:36:39.911Z,97.73
2022-11-19T01:39:51.654Z,97.31
2022-11-19T01:43:03.444Z,99.28
2022-11-19T02:31:15.269Z,100.00
2022-11-19T02:34:32.392Z,100.00
2022-11-19T02:37:49.722Z,100.00
2022-11-19T03:18:37.125Z,100.00
2022-11-19T03:40:23.430Z,100.00
2022-11-19T03:43:39.586Z,100.00
2022-11-19T04:01:00.008Z,100.00
2022-11-19T04:04:26.723Z,100.00
2022-11-19T04:07:38.535Z,100.00
2022-11-19T04:10:50.583Z,100.00
2022-11-19T04:14:04.247Z,100.00
2022-11-19T04:32:36.958Z,100.00
2022-11-19T04:35:51.685Z,100.00
2022-11-19T04:39:03.984Z,100.00
2022-11-19T04:42:15.793Z,100.00
2022-11-19T04:45:27.883Z,100.00
2022-11-19T04:48:39.886Z,100.00
2022-11-19T04:54:52.237Z,100.00
2022-11-19T04:58:04.066Z,100.00
2022-11-19T05:01:16.674Z,100.00
2022-11-19T05:04:33.645Z,100.00
2022-11-19T05:16:46.130Z,100.00
2022-11-19T05:20:00.102Z,100.00
2022-11-19T05:32:12.741Z,100.00
2022-11-19T05:35:24.961Z,100.00
2022-11-19T05:38:37.667Z,100.00
2022-11-19T05:41:49.269Z,100.00
2022-11-19T05:45:01.055Z,100.00
2022-11-19T05:48:13.628Z,100.00
2022-11-19T05:51:25.923Z,100.00
2022-11-19T05:54:37.686Z,100.00
2022-11-19T05:57:49.890Z,100.00
2022-11-19T06:01:04.707Z,100.00
2022-11-19T06:04:17.374Z,100.00
2022-11-19T06:07:29.253Z,100.00
2022-11-19T06:10:42.612Z,100.00
2022-11-19T06:13:54.249Z,100.00
2022-11-19T06:17:06.721Z,100.00
2022-11-19T06:20:19.214Z,100.00
2022-11-19T06:23:31.522Z,100.00
2022-11-19T06:26:43.729Z,100.00
2022-11-19T06:29:56.441Z,100.00
2022-11-19T06:33:08.366Z,100.00
2022-11-19T06:36:20.594Z,100.00
2022-11-19T06:39:32.456Z,100.00
2022-11-19T06:42:48.410Z,100.00
2022-11-19T06:45:58.107Z,100.00
2022-11-19T06:49:12.216Z,100.00
2022-11-19T06:52:24.048Z,100.00
2022-11-19T06:55:35.907Z,100.00
2022-11-19T06:58:48.051Z,100.00
2022-11-19T07:01:59.810Z,100.00
2022-11-19T07:05:12.953Z,100.00
2022-11-19T07:08:24.680Z,100.00
2022-11-19T07:11:36.664Z,99.93
2022-11-19T07:14:48.518Z,99.45
2022-11-19T07:18:01.128Z,100.00
2022-11-19T07:21:13.392Z,99.17
2022-11-19T07:24:26.986Z,98.70
2022-11-19T07:27:38.855Z,98.86
2022-11-19T07:30:50.741Z,98.75
2022-11-19T07:34:03.356Z,99.09
2022-11-19T07:37:15.349Z,98.09
2022-11-19T07:40:27.385Z,100.00
2022-11-19T07:43:39.268Z,100.00
2022-11-19T07:46:54.440Z,100.00
2022-11-19T07:50:06.375Z,100.00
2022-11-19T07:53:18.145Z,100.00
2022-11-19T07:56:30.353Z,100.00
2022-11-19T07:59:42.261Z,100.00
2022-11-19T08:02:54.137Z,100.00
2022-11-19T08:06:08.573Z,100.00
2022-11-19T08:09:20.732Z,100.00
2022-11-19T08:12:33.211Z,100.00
2022-11-19T08:15:45.218Z,100.00
2022-11-19T08:18:57.302Z,100.00
2022-11-19T08:22:09.428Z,100.00
2022-11-19T08:25:21.728Z,100.00
2022-11-19T08:28:34.650Z,100.00
2022-11-19T08:31:47.640Z,100.00
2022-11-19T08:34:59.582Z,100.00
2022-11-19T08:38:11.548Z,100.00
2022-11-19T08:41:38.316Z,100.00
2022-11-19T08:44:50.123Z,100.00
2022-11-19T08:48:03.257Z,100.00
2022-11-19T08:51:16.641Z,100.00
2022-11-19T08:54:28.588Z,100.00
2022-11-19T08:57:40.464Z,100.00
2022-11-19T09:00:52.379Z,100.00
2022-11-19T09:04:04.800Z,100.00
2022-11-19T09:07:16.642Z,100.00
2022-11-19T09:10:28.699Z,100.00
2022-11-19T09:13:40.513Z,100.00
2022-11-19T09:16:52.492Z,100.00
2022-11-19T09:20:04.491Z,100.00
2022-11-19T09:23:16.786Z,100.00
2022-11-19T09:26:28.525Z,100.00
2022-11-19T09:29:40.213Z,100.00
2022-11-19T09:32:51.915Z,100.00
2022-11-19T09:36:03.965Z,100.00
2022-11-19T09:39:16.310Z,100.00
2022-11-19T09:42:34.577Z,100.00
2022-11-19T09:45:56.396Z,100.00
2022-11-19T09:49:14.127Z,100.00
2022-11-19T09:52:29.807Z,100.00
2022-11-19T09:55:45.837Z,100.00
2022-11-19T09:58:58.013Z,100.00
2022-11-19T10:02:20.457Z,100.00
2022-11-19T10:05:41.650Z,100.00
2022-11-19T10:09:10.416Z,100.00
2022-11-19T10:12:33.354Z,100.00
2022-11-19T10:15:58.647Z,100.00
2022-11-19T10:19:18.472Z,100.00
2022-11-19T10:22:36.036Z,100.00
2022-11-19T10:25:51.547Z,100.00
2022-11-19T10:29:04.807Z,100.00
2022-11-19T10:32:30.679Z,100.00
2022-11-19T10:35:47.153Z,100.00
2022-11-19T10:39:04.120Z,96.98
2022-11-19T10:42:20.117Z,97.25
2022-11-19T10:45:34.848Z,96.57
2022-11-19T10:48:50.716Z,94.17
2022-11-19T10:52:03.506Z,92.53
2022-11-19T10:55:26.481Z,93.81
2022-11-19T10:58:43.524Z,95.44
2022-11-19T11:02:00.029Z,96.12
2022-11-19T11:05:19.622Z,94.09
2022-11-19T11:08:33.003Z,95.53
2022-11-19T11:12:01.289Z,95.31
2022-11-19T11:15:22.721Z,95.88
2022-11-19T11:18:39.453Z,95.49
2022-11-19T11:21:52.936Z,97.31
2022-11-19T11:25:07.431Z,95.73
2022-11-19T11:28:25.854Z,94.12
2022-11-19T11:31:43.770Z,93.00
2022-11-19T11:35:02.365Z,94.46
2022-11-19T11:38:16.403Z,93.24
2022-11-19T11:42:04.898Z,94.80
2022-11-19T11:45:02.318Z,94.44
2022-11-19T11:48:23.626Z,93.59
2022-11-19T11:51:42.960Z,95.06
2022-11-19T11:55:09.299Z,94.93
2022-11-19T11:58:36.327Z,94.62
2022-11-19T12:01:58.818Z,95.03
2022-11-19T12:05:19.775Z,96.12
2022-11-19T12:08:50.744Z,95.29
2022-11-19T12:12:10.706Z,94.85
2022-11-19T12:15:30.094Z,94.84
2022-11-19T12:18:51.142Z,95.79
2022-11-19T12:22:10.834Z,95.84
2022-11-19T12:25:36.434Z,97.51
2022-11-19T12:29:01.209Z,98.22
2022-11-19T12:32:35.004Z,98.03
2022-11-19T12:36:04.508Z,98.84
2022-11-19T12:39:26.715Z,97.14
2022-11-19T12:42:52.920Z,96.20
2022-11-19T12:46:11.867Z,97.39
2022-11-19T12:50:09.639Z,97.00
2022-11-19T12:53:54.871Z,98.59
2022-11-19T12:57:17.201Z,99.07
2022-11-19T13:00:32.356Z,99.70
2022-11-19T13:03:58.996Z,97.68
2022-11-19T13:07:16.952Z,96.06
2022-11-19T13:10:33.950Z,98.63
2022-11-19T13:13:50.279Z,97.74
2022-11-19T13:17:04.817Z,99.14
2022-11-19T13:20:25.118Z,99.14
2022-11-19T13:23:42.433Z,99.38
2022-11-19T13:26:54.681Z,99.74
2022-11-19T13:30:10.458Z,100.00
2022-11-19T13:33:28.257Z,100.00
2022-11-19T13:36:46.031Z,100.00
2022-11-19T13:40:04.328Z,100.00
2022-11-19T13:43:35.821Z,100.00
2022-11-19T13:46:52.377Z,100.00
2022-11-19T13:50:09.099Z,99.78
2022-11-19T13:53:27.554Z,100.00
2022-11-19T13:56:54.867Z,99.11
2022-11-19T14:00:08.265Z,98.59
2022-11-19T14:03:43.471Z,97.91
2022-11-19T14:07:29.664Z,98.32
2022-11-19T14:10:44.000Z,99.80
2022-11-19T14:14:40.318Z,97.28
2022-11-19T14:18:12.642Z,99.14
2022-11-19T14:22:05.903Z,99.03
2022-11-19T14:25:32.422Z,100.00
2022-11-19T14:28:53.545Z,99.40
2022-11-19T14:32:36.056Z,99.97
2022-11-19T14:35:48.169Z,99.49
2022-11-19T14:39:03.311Z,99.35
2022-11-19T14:42:24.019Z,98.71
2022-11-19T14:45:36.166Z,98.03
2022-11-19T14:48:59.067Z,98.15
2022-11-19T14:52:25.144Z,99.58
2022-11-19T14:55:40.022Z,100.00
2022-11-19T14:59:01.438Z,100.00
2022-11-19T15:02:28.663Z,100.00
2022-11-19T15:05:45.311Z,100.00
2022-11-19T15:09:02.115Z,100.00
2022-11-19T15:12:14.519Z,100.00
2022-11-19T15:15:46.907Z,100.00
2022-11-19T15:19:35.722Z,100.00
2022-11-19T15:22:56.325Z,100.00
2022-11-19T15:26:19.444Z,100.00
2022-11-19T15:29:39.913Z,100.00
2022-11-19T15:33:27.157Z,100.00
2022-11-19T15:36:44.645Z,100.00
2022-11-19T15:40:00.484Z,100.00
2022-11-19T15:43:18.296Z,100.00
2022-11-19T15:46:40.265Z,100.00
2022-11-19T15:49:53.521Z,100.00
2022-11-19T15:53:20.222Z,100.00
2022-11-19T15:56:35.695Z,100.00
2022-11-19T15:59:48.814Z,100.00
2022-11-19T16:03:02.095Z,100.00
2022-11-19T16:06:20.935Z,100.00
2022-11-19T16:09:33.664Z,100.00
2022-11-19T16:13:13.110Z,100.00
2022-11-19T16:16:44.639Z,100.00
2022-11-19T16:20:13.221Z,100.00
2022-11-19T16:23:27.942Z,100.00
2022-11-19T16:26:45.485Z,100.00
2022-11-19T16:29:58.632Z,100.00
2022-11-19T16:33:10.759Z,100.00
2022-11-19T16:36:25.449Z,100.00
2022-11-19T16:39:39.191Z,100.00
2022-11-19T16:42:56.249Z,100.00
2022-11-19T16:46:10.696Z,100.00
2022-11-19T16:49:37.044Z,100.00
2022-11-19T16:52:49.940Z,100.00
2022-11-19T16:56:02.652Z,100.00
2022-11-19T16:59:24.732Z,100.00
2022-11-19T17:02:42.036Z,100.00
2022-11-19T17:05:56.626Z,100.00
2022-11-19T17:09:11.853Z,100.00
2022-11-19T17:12:37.378Z,100.00
2022-11-19T17:15:51.693Z,100.00
2022-11-19T17:19:03.425Z,100.00
2022-11-19T17:22:23.273Z,100.00
2022-11-19T17:25:35.549Z,100.00
2022-11-19T17:28:52.275Z,100.00
2022-11-19T17:32:05.376Z,100.00
2022-11-19T17:35:37.496Z,100.00
2022-11-19T17:38:49.646Z,100.00
2022-11-19T17:42:17.817Z,100.00
2022-11-19T17:45:29.621Z,100.00
2022-11-19T17:48:45.410Z,100.00
2022-11-19T17:51:57.215Z,100.00
2022-11-19T17:55:22.423Z,100.00
2022-11-19T17:58:34.629Z,100.00
2022-11-19T18:01:47.004Z,100.00
2022-11-19T18:04:59.331Z,100.00
2022-11-19T18:08:11.857Z,100.00
2022-11-19T18:11:26.832Z,100.00
2022-11-19T18:14:38.683Z,100.00
2022-11-19T18:17:50.701Z,100.00
2022-11-19T18:21:02.734Z,100.00
2022-11-19T18:24:18.171Z,100.00
2022-11-19T18:27:30.052Z,100.00
2022-11-19T18:30:43.043Z,100.00
2022-11-19T18:33:55.824Z,100.00
2022-11-19T18:37:07.553Z,100.00
2022-11-19T18:40:21.710Z,100.00
2022-11-19T18:43:47.993Z,100.00
2022-11-19T18:47:00.569Z,100.00
2022-11-19T18:50:17.368Z,100.00
2022-11-19T18:53:29.706Z,100.00
2022-11-19T18:56:41.474Z,100.00
2022-11-19T18:59:53.180Z,100.00
2022-11-19T19:03:05.686Z,100.00
2022-11-19T19:06:17.796Z,100.00
2022-11-19T19:09:29.608Z,100.00
2022-11-19T19:12:42.595Z,100.00
2022-11-19T19:15:54.332Z,100.00
2022-11-19T19:19:06.617Z,100.00
2022-11-19T19:22:19.592Z,100.00
2022-11-19T19:25:31.692Z,100.00
2022-11-19T19:28:45.107Z,100.00
2022-11-19T19:31:58.353Z,100.00
2022-11-19T19:35:11.805Z,100.00
2022-11-19T19:38:23.743Z,100.00
2022-11-19T19:41:35.616Z,100.00
2022-11-19T19:44:47.492Z,100.00
2022-11-19T19:47:59.338Z,100.00
2022-11-19T19:51:12.164Z,100.00
2022-11-19T19:54:24.423Z,100.00
2022-11-19T19:57:37.697Z,100.00
2022-11-19T20:00:49.593Z,100.00
2022-11-19T20:04:08.032Z,100.00
2022-11-19T20:07:19.942Z,100.00
2022-11-19T20:10:32.427Z,100.00
2022-11-19T20:13:45.909Z,100.00
2022-11-19T20:16:58.962Z,100.00
2022-11-19T20:20:13.440Z,100.00
2022-11-19T20:23:25.620Z,100.00
2022-11-19T20:26:38.786Z,100.00
2022-11-19T20:29:50.933Z,100.00
2022-11-19T20:33:02.856Z,100.00
2022-11-19T20:36:18.582Z,100.00
2022-11-19T20:39:30.438Z,100.00
2022-11-19T20:42:56.898Z,100.00
2022-11-19T20:46:17.581Z,100.00
2022-11-19T20:49:32.568Z,100.00
2022-11-19T20:52:44.605Z,100.00
2022-11-19T20:56:04.864Z,100.00
2022-11-19T20:59:12.249Z,100.00
2022-11-19T21:02:24.139Z,100.00
2022-11-19T21:05:36.045Z,100.00
2022-11-19T21:08:48.271Z,100.00
2022-11-19T21:12:00.442Z,100.00
2022-11-19T21:15:14.791Z,100.00
2022-11-19T21:18:26.813Z,100.00
2022-11-19T21:21:39.029Z,100.00
2022-11-19T21:24:50.907Z,100.00
2022-11-19T21:28:02.930Z,100.00
2022-11-19T21:31:17.899Z,100.00
2022-11-19T21:34:29.801Z,100.00
2022-11-19T21:37:42.905Z,100.00
2022-11-19T21:40:59.150Z,100.00
2022-11-19T21:44:18.018Z,100.00
2022-11-19T21:47:27.615Z,100.00
2022-11-19T21:50:41.670Z,100.00
2022-11-19T21:53:53.659Z,100.00
2022-11-19T21:57:05.773Z,100.00
2022-11-19T22:00:21.554Z,100.00
2022-11-19T22:03:34.547Z,100.00
2022-11-19T22:06:46.895Z,100.00
2022-11-19T22:09:59.493Z,100.00
2022-11-19T22:13:11.826Z,100.00
2022-11-19T22:16:24.703Z,100.00
2022-11-19T22:19:36.415Z,100.00
2022-11-19T22:22:48.335Z,100.00
2022-11-19T22:26:00.252Z,100.00
2022-11-19T22:29:12.436Z,100.00
2022-11-19T22:32:24.193Z,100.00
2022-11-19T22:35:36.035Z,100.00
2022-11-19T22:38:47.937Z,100.00
2022-11-19T22:41:59.830Z,100.00
2022-11-19T22:45:13.997Z,100.00
2022-11-19T22:48:25.886Z,100.00
2022-11-19T22:51:37.692Z,100.00
2022-11-19T22:54:49.585Z,100.00
2022-11-19T22:58:01.379Z,100.00
2022-11-19T23:01:20.798Z,100.00
2022-11-19T23:04:32.769Z,100.00
2022-11-19T23:07:44.604Z,100.00
2022-11-19T23:11:02.698Z,100.00
2022-11-19T23:14:17.158Z,100.00
2022-11-19T23:17:29.061Z,100.00
2022-11-19T23:20:41.063Z,100.00
2022-11-19T23:23:53.799Z,100.00
2022-11-19T23:27:05.577Z,100.00
2022-11-19T23:30:18.912Z,100.00
2022-11-19T23:33:31.012Z,100.00
2022-11-19T23:36:45.123Z,100.00
2022-11-19T23:39:56.888Z,100.00
2022-11-19T23:43:09.633Z,100.00
2022-11-19T23:46:24.776Z,100.00
2022-11-19T23:49:36.447Z,100.00
2022-11-19T23:52:48.058Z,100.00
2022-11-19T23:55:59.840Z,100.00
2022-11-19T23:59:12.651Z,100.00
